Time;durP1;ratioP1;P1;durP2;ratioP2;P2;SDS_P1;SDS_P2;PMS_P1;PMS_P2;Temp;Humidity;BMP_temperature;BMP_pressure;BME280_temperature;BME280_humidity;BME280_pressure;Samples;Min_cycle;Max_cycle;Signal;HPM_P1;HPM_P2
2022/06/22 00:02:04;;;;;;;4.27;2.63;;;19.00;99.90;;;;;;4952770;28;20218;-74
2022/06/22 00:04:41;;;;;;;4.00;2.67;;;19.00;99.90;;;;;;4948551;28;20290;-74
2022/06/22 00:07:15;;;;;;;5.67;2.60;;;18.90;99.90;;;;;;4948470;28;20194;-74
2022/06/22 00:09:43;;;;;;;6.83;2.60;;;18.80;99.90;;;;;;4953456;28;20209;-74
2022/06/22 00:12:24;;;;;;;2.90;2.60;;;18.80;99.90;;;;;;4945967;29;20218;-75
2022/06/22 00:14:54;;;;;;;3.97;2.70;;;18.80;99.90;;;;;;4944690;29;20297;-74
2022/06/22 00:17:26;;;;;;;3.23;2.50;;;18.80;99.90;;;;;;4949400;28;20654;-75
2022/06/22 00:20:28;;;;;;;2.80;2.50;;;18.70;99.90;;;;;;4952918;28;20233;-76
2022/06/22 00:23:16;;;;;;;4.80;2.77;;;18.70;99.90;;;;;;4946109;28;20226;-75
2022/06/22 00:25:43;;;;;;;5.40;2.57;;;18.70;99.90;;;;;;4950756;29;20194;-75
2022/06/22 00:28:31;;;;;;;2.80;2.50;;;18.70;99.90;;;;;;4947243;29;20198;-74
2022/06/22 00:31:11;;;;;;;4.63;2.30;;;18.70;99.90;;;;;;4952969;28;20800;-72
2022/06/22 00:33:39;;;;;;;6.03;2.60;;;18.70;99.90;;;;;;4948244;28;20201;-74
2022/06/22 00:36:19;;;;;;;2.90;2.50;;;18.60;99.90;;;;;;4954113;29;20862;-74
2022/06/22 00:38:46;;;;;;;5.93;2.67;;;18.70;99.90;;;;;;4952586;28;20237;-73
2022/06/22 00:41:18;;;;;;;4.17;2.93;;;18.60;99.90;;;;;;4943420;28;20506;-74
2022/06/22 00:43:45;;;;;;;5.43;2.90;;;18.60;99.90;;;;;;4948615;29;20254;-73
2022/06/22 00:46:15;;;;;;;3.00;2.67;;;18.60;99.90;;;;;;4944641;29;20198;-74
2022/06/22 00:48:43;;;;;;;4.63;2.90;;;18.50;99.90;;;;;;4952691;28;20218;-74
2022/06/22 00:51:16;;;;;;;6.03;2.90;;;18.50;99.90;;;;;;4945842;29;20199;-74
2022/06/22 00:53:58;;;;;;;3.37;2.80;;;18.50;99.90;;;;;;4950432;28;20683;-74
2022/06/22 00:56:34;;;;;;;5.53;2.80;;;18.50;99.90;;;;;;4947802;29;20209;-74
2022/06/22 00:59:18;;;;;;;3.30;2.57;;;18.40;99.90;;;;;;4944047;29;20226;-75
2022/06/22 01:01:55;;;;;;;4.50;2.70;;;18.40;99.90;;;;;;4947582;28;20214;-74
2022/06/22 01:04:42;;;;;;;3.80;2.60;;;18.40;99.90;;;;;;4952375;28;20197;-75
2022/06/22 01:07:28;;;;;;;4.23;2.77;;;18.30;99.90;;;;;;4947152;29;20194;-74
2022/06/22 01:10:10;;;;;;;2.90;2.53;;;18.30;99.90;;;;;;4952177;28;20194;-74
2022/06/22 01:12:47;;;;;;;3.40;2.80;;;18.30;99.90;;;;;;4946809;29;20222;-73
2022/06/22 01:15:36;;;;;;;4.47;2.70;;;18.30;99.90;;;;;;4941097;29;20214;-75
2022/06/22 01:18:17;;;;;;;5.53;3.03;;;18.30;99.90;;;;;;4950351;29;20254;-75
2022/06/22 01:21:00;;;;;;;4.33;3.00;;;18.20;99.90;;;;;;4951261;28;20222;-73
2022/06/22 01:23:58;;;;;;;5.63;2.90;;;18.10;99.90;;;;;;4947397;29;20206;-74
2022/06/22 01:27:01;;;;;;;3.40;2.70;;;18.10;99.90;;;;;;4946112;29;20187;-75
2022/06/22 01:29:28;;;;;;;3.93;2.80;;;18.10;99.90;;;;;;4948041;29;20261;-73
2022/06/22 01:32:03;;;;;;;3.77;2.43;;;18.20;99.90;;;;;;4950758;28;20226;-74
2022/06/22 01:34:36;;;;;;;5.03;2.80;;;18.00;99.90;;;;;;4947754;28;20688;-74
2022/06/22 01:37:10;;;;;;;5.70;2.73;;;17.90;99.90;;;;;;4946763;29;20752;-74
2022/06/22 01:39:36;;;;;;;4.20;2.87;;;17.70;99.90;;;;;;4950477;28;20222;-73
2022/06/22 01:42:15;;;;;;;4.27;2.80;;;17.70;99.90;;;;;;4950617;28;20273;-74
2022/06/22 01:45:04;;;;;;;3.43;2.70;;;17.70;99.90;;;;;;4948277;29;20209;-74
2022/06/22 01:47:45;;;;;;;4.57;2.67;;;17.70;99.90;;;;;;4945160;28;20232;-74
2022/06/22 01:50:15;;;;;;;4.70;2.63;;;17.60;99.90;;;;;;4939729;28;20206;-74
2022/06/22 01:53:24;;;;;;;3.70;2.70;;;17.40;99.90;;;;;;4950124;28;20304;-74
2022/06/22 01:56:03;;;;;;;3.50;2.73;;;17.20;99.90;;;;;;4944748;28;20195;-74
2022/06/22 01:59:01;;;;;;;3.27;2.70;;;17.00;99.90;;;;;;4947735;29;20230;-74
2022/06/22 02:01:43;;;;;;;3.40;2.57;;;17.00;99.90;;;;;;4945127;29;20218;-74
2022/06/22 02:04:22;;;;;;;3.07;2.77;;;16.90;99.90;;;;;;4941511;29;20286;-75
2022/06/22 02:10:24;;;;;;;4.87;3.03;;;17.20;99.90;;;;;;4950002;28;20203;-73
2022/06/22 02:12:56;;;;;;;3.20;2.80;;;17.30;99.90;;;;;;4949851;28;20229;-74
2022/06/22 02:15:39;;;;;;;6.07;3.07;;;17.40;99.90;;;;;;4946537;28;20213;-75
2022/06/22 02:18:32;;;;;;;4.80;2.80;;;17.30;99.90;;;;;;4951110;29;20199;-74
2022/06/22 02:21:15;;;;;;;3.30;2.60;;;17.30;99.90;;;;;;4948202;29;20214;-74
2022/06/22 02:23:44;;;;;;;2.70;2.50;;;17.30;99.90;;;;;;4949029;28;20229;-74
2022/06/22 02:26:31;;;;;;;5.13;2.70;;;17.30;99.90;;;;;;4948522;29;20201;-74
2022/06/22 02:28:57;;;;;;;3.73;2.77;;;17.50;99.90;;;;;;4949328;28;20666;-74
2022/06/22 02:31:24;;;;;;;3.07;2.60;;;17.50;99.90;;;;;;4942744;29;20221;-75
2022/06/22 02:33:53;;;;;;;3.23;2.60;;;17.40;99.90;;;;;;4949968;29;20194;-74
2022/06/22 02:36:23;;;;;;;4.33;2.93;;;17.50;99.90;;;;;;4951343;28;20194;-75
2022/06/22 02:38:52;;;;;;;4.57;2.73;;;17.50;99.90;;;;;;4949614;29;20246;-74
2022/06/22 02:44:29;;;;;;;3.77;2.50;;;17.10;99.90;;;;;;4951361;28;20203;-75
2022/06/22 02:47:18;;;;;;;4.77;2.67;;;16.90;99.90;;;;;;4951032;28;20206;-74
2022/06/22 02:49:49;;;;;;;5.07;2.80;;;16.80;99.90;;;;;;4945451;29;20195;-73
2022/06/22 02:52:17;;;;;;;3.03;2.70;;;16.90;99.90;;;;;;4949151;28;20218;-74
2022/06/22 02:54:55;;;;;;;3.00;2.70;;;17.00;99.90;;;;;;4951373;28;20198;-74
2022/06/22 02:57:28;;;;;;;5.13;2.90;;;17.00;99.90;;;;;;4948025;29;20225;-74
2022/06/22 02:59:56;;;;;;;5.57;2.87;;;16.90;99.90;;;;;;4947433;28;20210;-74
2022/06/22 03:02:24;;;;;;;3.53;2.70;;;16.90;99.90;;;;;;4950642;28;20222;-73
2022/06/22 03:04:56;;;;;;;3.23;2.80;;;17.00;99.90;;;;;;4948943;28;20761;-74
2022/06/22 03:07:24;;;;;;;3.53;2.67;;;17.20;99.90;;;;;;4948255;28;20225;-74
2022/06/22 03:09:52;;;;;;;3.10;2.80;;;17.10;99.90;;;;;;4950483;28;20298;-74
2022/06/22 03:12:18;;;;;;;3.63;2.60;;;17.00;99.90;;;;;;4950987;28;20555;-74
2022/06/22 03:14:48;;;;;;;3.70;3.17;;;16.80;99.90;;;;;;4950779;28;20203;-71
2022/06/22 03:17:22;;;;;;;3.37;2.73;;;16.80;99.90;;;;;;4948533;28;20198;-74
2022/06/22 03:20:00;;;;;;;4.20;2.80;;;16.80;99.90;;;;;;4950130;29;20228;-74
2022/06/22 03:22:34;;;;;;;3.43;2.90;;;16.80;99.90;;;;;;4950284;28;20218;-74
2022/06/22 03:25:18;;;;;;;3.20;2.33;;;16.80;99.90;;;;;;4953811;28;20194;-74
2022/06/22 03:27:49;;;;;;;7.07;3.13;;;16.80;99.90;;;;;;4954193;28;20206;-74
2022/06/22 03:30:19;;;;;;;4.17;2.97;;;16.90;99.90;;;;;;4949646;29;21022;-74
2022/06/22 03:32:54;;;;;;;3.57;2.67;;;17.00;99.90;;;;;;4952358;29;20256;-74
2022/06/22 03:35:30;;;;;;;4.77;3.00;;;17.00;99.90;;;;;;4953973;28;20202;-74
2022/06/22 03:38:18;;;;;;;4.07;2.80;;;17.00;99.90;;;;;;4952922;29;20566;-74
2022/06/22 03:40:55;;;;;;;4.10;2.80;;;17.10;99.90;;;;;;4951195;29;20229;-74
2022/06/22 03:43:42;;;;;;;4.77;2.80;;;17.10;99.90;;;;;;4948792;29;20210;-74
2022/06/22 03:46:17;;;;;;;3.63;2.93;;;17.10;99.90;;;;;;4951809;28;20684;-75
2022/06/22 03:48:57;;;;;;;3.40;2.80;;;17.10;99.90;;;;;;4952723;28;20194;-74
2022/06/22 03:51:30;;;;;;;3.47;3.10;;;17.10;99.90;;;;;;4948394;29;20517;-74
2022/06/22 03:54:23;;;;;;;3.87;2.83;;;17.20;99.90;;;;;;4953414;28;20209;-75
2022/06/22 03:56:54;;;;;;;3.50;2.80;;;17.30;99.90;;;;;;4952473;28;20194;-74
2022/06/22 03:59:21;;;;;;;4.00;2.50;;;17.30;99.90;;;;;;4951882;28;20565;-74
2022/06/22 04:01:48;;;;;;;4.80;2.60;;;17.30;99.90;;;;;;4953072;28;20217;-74
2022/06/22 04:04:14;;;;;;;3.77;3.37;;;17.40;99.90;;;;;;4953801;28;20290;-74
2022/06/22 04:06:47;;;;;;;3.23;2.60;;;17.50;99.90;;;;;;4952907;28;20605;-74
2022/06/22 04:09:18;;;;;;;3.80;2.77;;;17.50;99.90;;;;;;4946530;29;20203;-75
2022/06/22 04:11:54;;;;;;;3.63;2.60;;;17.60;99.90;;;;;;4951102;28;20216;-75
2022/06/22 04:14:27;;;;;;;5.20;2.90;;;17.60;99.90;;;;;;4953345;29;20351;-73
2022/06/22 04:16:59;;;;;;;3.90;2.80;;;17.60;99.90;;;;;;4950969;28;20667;-74
2022/06/22 04:19:39;;;;;;;3.30;2.63;;;17.70;99.90;;;;;;4951444;28;20684;-74
2022/06/22 04:22:21;;;;;;;5.43;3.00;;;17.80;99.90;;;;;;4952577;28;20297;-74
2022/06/22 04:24:59;;;;;;;3.73;3.00;;;17.80;99.90;;;;;;4947289;29;20674;-74
2022/06/22 04:27:33;;;;;;;3.63;2.97;;;17.80;99.90;;;;;;4952580;29;20197;-75
2022/06/22 04:30:10;;;;;;;4.20;3.20;;;17.90;99.90;;;;;;4952935;28;20677;-74
2022/06/22 04:32:44;;;;;;;5.07;3.43;;;18.20;99.90;;;;;;4948063;28;20226;-73
2022/06/22 04:35:52;;;;;;;5.03;3.20;;;18.30;99.90;;;;;;4951428;29;20205;-74
2022/06/22 04:38:27;;;;;;;5.40;3.90;;;18.30;99.90;;;;;;4960125;28;20609;-74
2022/06/22 04:41:14;;;;;;;5.07;3.30;;;18.30;99.90;;;;;;4951457;28;20211;-74
2022/06/22 04:43:40;;;;;;;4.73;3.23;;;18.30;99.90;;;;;;4952857;28;20194;-74
2022/06/22 04:46:12;;;;;;;6.07;3.50;;;18.40;99.90;;;;;;4950849;28;20194;-74
2022/06/22 04:48:46;;;;;;;7.07;4.03;;;18.60;99.90;;;;;;4947654;29;20206;-74
2022/06/22 04:51:36;;;;;;;5.70;3.90;;;18.90;99.90;;;;;;4947795;29;20675;-74
2022/06/22 04:54:24;;;;;;;5.23;3.93;;;18.90;99.90;;;;;;4950335;29;20203;-74
2022/06/22 04:56:55;;;;;;;5.00;3.80;;;19.00;99.90;;;;;;4951558;28;20253;-74
2022/06/22 04:59:22;;;;;;;4.80;3.60;;;19.20;99.90;;;;;;4949717;28;20257;-74
2022/06/22 05:01:54;;;;;;;7.87;4.20;;;19.10;99.90;;;;;;4950195;29;20221;-72
2022/06/22 05:04:31;;;;;;;5.70;3.97;;;19.00;99.90;;;;;;4952038;28;20202;-72
2022/06/22 05:07:01;;;;;;;5.53;4.10;;;19.00;99.90;;;;;;4950790;28;20209;-72
2022/06/22 05:09:38;;;;;;;4.80;4.17;;;19.10;99.90;;;;;;4946944;29;20206;-72
2022/06/22 05:12:13;;;;;;;6.33;4.87;;;19.20;99.90;;;;;;4949245;29;20226;-72
2022/06/22 05:14:41;;;;;;;5.27;4.23;;;19.20;99.90;;;;;;4950055;29;20571;-73
2022/06/22 05:17:33;;;;;;;8.37;4.77;;;19.30;99.90;;;;;;4948178;28;20616;-73
2022/06/22 05:20:24;;;;;;;29.27;19.97;;;19.50;99.90;;;;;;4951456;28;20213;-74
2022/06/22 05:22:56;;;;;;;8.13;5.07;;;19.70;99.90;;;;;;4951425;28;20222;-73
2022/06/22 05:25:23;;;;;;;6.67;4.20;;;20.00;99.90;;;;;;4947910;28;20187;-73
2022/06/22 05:28:01;;;;;;;12.80;4.45;;;20.30;99.90;;;;;;4950501;29;20198;-73
2022/06/22 05:30:37;;;;;;;5.30;3.97;;;20.70;99.90;;;;;;4952402;28;20190;-73
2022/06/22 05:33:20;;;;;;;5.22;3.42;;;21.00;99.90;;;;;;4949141;29;20241;-73
2022/06/22 05:36:01;;;;;;;5.22;3.53;;;21.10;99.90;;;;;;4946290;29;20201;-73
2022/06/22 05:38:37;;;;;;;4.53;3.20;;;21.40;99.90;;;;;;4951843;28;20202;-73
2022/06/22 05:41:07;;;;;;;7.05;3.40;;;21.40;99.90;;;;;;4949795;29;20273;-73
2022/06/22 05:43:38;;;;;;;5.63;3.72;;;21.50;99.90;;;;;;4942883;28;20658;-72
2022/06/22 05:46:06;;;;;;;3.28;2.85;;;21.50;99.90;;;;;;4946095;29;20206;-72
2022/06/22 05:48:40;;;;;;;4.95;3.30;;;21.70;99.90;;;;;;4950123;28;20513;-72
2022/06/22 05:51:20;;;;;;;5.63;3.75;;;21.90;99.90;;;;;;4950143;29;20213;-73
2022/06/22 05:53:59;;;;;;;5.60;3.47;;;22.00;99.90;;;;;;4947371;29;20206;-70
2022/06/22 05:56:46;;;;;;;9.27;3.90;;;22.10;99.90;;;;;;4943706;29;20229;-73
2022/06/22 05:59:21;;;;;;;5.90;3.90;;;22.20;99.90;;;;;;4942064;29;20257;-72
2022/06/22 06:02:03;;;;;;;9.35;3.83;;;22.20;99.90;;;;;;4939732;29;20256;-72
2022/06/22 06:04:38;;;;;;;6.95;3.53;;;21.90;99.90;;;;;;4940747;29;20194;-72
2022/06/22 06:07:29;;;;;;;5.93;3.15;;;21.90;99.90;;;;;;4937631;29;20206;-74
2022/06/22 06:09:56;;;;;;;6.65;3.60;;;22.00;99.90;;;;;;4937978;29;20202;-72
2022/06/22 06:12:39;;;;;;;8.25;3.53;;;21.90;99.90;;;;;;4933021;29;20225;-73
2022/06/22 06:15:09;;;;;;;10.68;3.95;;;22.10;99.90;;;;;;4940557;29;20312;-72
2022/06/22 06:17:48;;;;;;;8.35;3.80;;;22.20;99.90;;;;;;4938613;29;20201;-72
2022/06/22 06:20:22;;;;;;;9.48;3.65;;;22.40;99.90;;;;;;4937899;29;20226;-73
2022/06/22 06:22:55;;;;;;;5.03;3.45;;;22.80;99.90;;;;;;4936693;29;20283;-72
2022/06/22 06:28:24;;;;;;;5.18;3.55;;;23.80;99.90;;;;;;4939388;29;20902;-73
2022/06/22 06:30:54;;;;;;;5.32;3.33;;;23.50;99.90;;;;;;4938661;29;20194;-73
2022/06/22 06:33:36;;;;;;;4.93;2.92;;;23.30;99.90;;;;;;4938898;29;20307;-72
2022/06/22 06:36:32;;;;;;;6.80;3.35;;;23.30;99.90;;;;;;4936429;29;20203;-74
2022/06/22 06:39:28;;;;;;;4.57;2.95;;;23.30;99.90;;;;;;4938016;29;20206;-72
2022/06/22 06:42:04;;;;;;;5.38;3.35;;;23.30;99.90;;;;;;4936938;29;20234;-72
2022/06/22 06:44:37;;;;;;;6.90;3.33;;;23.10;99.90;;;;;;4938694;29;20466;-72
2022/06/22 06:47:17;;;;;;;7.47;3.08;;;23.00;99.90;;;;;;4938011;28;20694;-72
2022/06/22 06:50:12;;;;;;;4.50;2.90;;;23.00;99.90;;;;;;4936168;29;20742;-72
2022/06/22 06:52:54;;;;;;;3.53;2.42;;;22.60;99.90;;;;;;4937287;29;20214;-72
2022/06/22 06:55:24;;;;;;;4.90;2.70;;;22.70;99.90;;;;;;4939474;29;20209;-70
2022/06/22 06:58:22;;;;;;;3.92;2.65;;;22.80;99.90;;;;;;4941500;28;20197;-73
2022/06/22 07:00:49;;;;;;;3.42;2.50;;;22.80;99.90;;;;;;4945892;28;20240;-72
2022/06/22 07:03:24;;;;;;;4.88;2.90;;;23.20;99.90;;;;;;4942997;28;20218;-71
2022/06/22 07:05:51;;;;;;;4.75;3.00;;;23.20;99.90;;;;;;4942017;29;20194;-73
2022/06/22 07:08:25;;;;;;;4.15;2.72;;;23.60;99.90;;;;;;4940380;29;20285;-72
2022/06/22 07:11:31;;;;;;;3.75;2.83;;;24.20;99.90;;;;;;4939635;29;20642;-71
2022/06/22 07:14:12;;;;;;;7.55;2.95;;;25.30;99.90;;;;;;4939001;29;20293;-74
2022/06/22 07:16:41;;;;;;;6.97;2.58;;;26.10;99.90;;;;;;4940138;29;20201;-72
2022/06/22 07:19:19;;;;;;;4.28;3.13;;;27.00;99.90;;;;;;4940025;28;20245;-73
2022/06/22 07:22:03;;;;;;;6.78;3.25;;;27.30;99.90;;;;;;4939122;29;20226;-73
2022/06/22 07:24:39;;;;;;;7.57;3.42;;;27.80;99.90;;;;;;4940288;29;20207;-72
2022/06/22 07:27:25;;;;;;;6.80;2.88;;;28.00;99.90;;;;;;4942453;29;20231;-73
2022/06/22 07:30:01;;;;;;;10.93;3.85;;;28.00;99.90;;;;;;4940825;29;20206;-72
2022/06/22 07:33:01;;;;;;;9.77;3.83;;;28.20;99.90;;;;;;4939999;29;20221;-73
2022/06/22 07:35:37;;;;;;;19.75;4.15;;;28.20;99.90;;;;;;4940533;29;20207;-71
2022/06/22 07:38:25;;;;;;;13.98;3.80;;;28.00;99.90;;;;;;4939387;29;20206;-72
2022/06/22 07:43:38;;;;;;;12.35;3.35;;;27.40;99.90;;;;;;4940250;29;20202;-70
2022/06/22 07:46:07;;;;;;;12.27;3.55;;;27.40;99.90;;;;;;4939620;29;20190;-72
2022/06/22 07:48:41;;;;;;;15.07;4.00;;;27.50;99.90;;;;;;4939327;29;20968;-71
2022/06/22 07:51:13;;;;;;;9.93;3.35;;;27.50;99.90;;;;;;4939920;29;20213;-73
2022/06/22 07:53:52;;;;;;;8.10;2.92;;;27.60;99.90;;;;;;4938940;28;20202;-72
2022/06/22 07:56:46;;;;;;;11.95;3.70;;;27.40;99.90;;;;;;4940721;29;20217;-72
2022/06/22 07:59:18;;;;;;;20.50;3.58;;;27.70;99.90;;;;;;4940772;29;20206;-72
2022/06/22 08:01:47;;;;;;;14.50;3.42;;;27.70;99.90;;;;;;4939569;29;20229;-70
2022/06/22 08:04:27;;;;;;;3.30;2.00;;;27.90;99.90;;;;;;4939668;28;20224;-73
2022/06/22 08:06:56;;;;;;;5.38;1.98;;;27.70;99.90;;;;;;4940514;29;21179;-72
2022/06/22 08:09:44;;;;;;;2.88;2.00;;;27.30;99.90;;;;;;4938918;29;20257;-72
2022/06/22 08:12:22;;;;;;;2.60;1.92;;;27.10;99.90;;;;;;4939428;28;20281;-71
2022/06/22 08:14:54;;;;;;;2.75;1.80;;;27.00;99.90;;;;;;4938569;29;20685;-70
2022/06/22 08:17:43;;;;;;;5.47;2.13;;;27.10;99.90;;;;;;4940792;28;20210;-71
2022/06/22 08:20:13;;;;;;;4.65;2.33;;;27.40;99.90;;;;;;4939613;29;20221;-71
2022/06/22 08:22:42;;;;;;;3.53;1.80;;;27.50;99.90;;;;;;4939338;28;20299;-73
2022/06/22 08:25:10;;;;;;;4.38;1.90;;;27.50;99.90;;;;;;4941094;29;20659;-73
2022/06/22 08:27:37;;;;;;;8.40;2.28;;;27.60;99.90;;;;;;4939375;28;20225;-71
2022/06/22 08:30:05;;;;;;;3.65;2.10;;;27.70;99.90;;;;;;4939548;28;20609;-73
2022/06/22 08:32:38;;;;;;;2.42;1.88;;;27.50;99.90;;;;;;4940510;29;20222;-71
2022/06/22 08:35:20;;;;;;;4.72;2.00;;;27.50;99.90;;;;;;4939877;29;20211;-73
2022/06/22 08:37:54;;;;;;;5.20;2.10;;;27.60;99.90;;;;;;4939173;28;20688;-73
2022/06/22 08:40:32;;;;;;;5.95;2.30;;;27.50;99.90;;;;;;4940158;29;20214;-72
2022/06/22 08:43:37;;;;;;;6.05;2.00;;;27.70;99.90;;;;;;4938295;29;20274;-73
2022/06/22 08:46:10;;;;;;;2.70;2.03;;;27.90;99.90;;;;;;4938856;29;20202;-72
2022/06/22 08:49:20;;;;;;;10.82;2.53;;;27.90;99.90;;;;;;4939352;29;20210;-72
2022/06/22 08:51:50;;;;;;;7.10;2.30;;;28.00;99.90;;;;;;4939288;29;20226;-73
2022/06/22 08:54:29;;;;;;;5.45;2.53;;;28.20;99.90;;;;;;4939981;29;20257;-72
2022/06/22 08:57:24;;;;;;;5.78;2.03;;;28.30;99.90;;;;;;4939898;29;20645;-73
2022/06/22 09:00:14;;;;;;;4.55;2.30;;;28.60;99.80;;;;;;4937760;29;20214;-72
2022/06/22 09:02:46;;;;;;;4.50;2.40;;;28.80;99.40;;;;;;4939181;29;20227;-73
2022/06/22 09:05:50;;;;;;;5.50;2.13;;;28.90;99.30;;;;;;4939009;29;20194;-71
2022/06/22 09:08:54;;;;;;;3.25;2.30;;;28.90;99.10;;;;;;4938175;28;20202;-72
2022/06/22 09:11:33;;;;;;;3.17;1.90;;;29.10;98.80;;;;;;4937745;28;20209;-70
2022/06/22 09:14:45;;;;;;;2.97;1.90;;;29.00;98.70;;;;;;4941283;28;20206;-72
2022/06/22 09:17:18;;;;;;;3.13;1.90;;;28.90;98.70;;;;;;4940780;28;20237;-74
2022/06/22 09:20:21;;;;;;;3.42;2.10;;;29.20;98.40;;;;;;4937775;28;20249;-72
2022/06/22 09:22:58;;;;;;;1.98;1.77;;;29.20;98.20;;;;;;4937877;28;20305;-72
2022/06/22 09:25:47;;;;;;;1.90;1.65;;;29.20;98.40;;;;;;4937937;28;20203;-72
2022/06/22 09:28:38;;;;;;;4.80;1.95;;;29.40;98.50;;;;;;4941304;29;20217;-74
2022/06/22 09:31:28;;;;;;;3.88;1.90;;;29.70;98.90;;;;;;4938878;28;20726;-72
2022/06/22 09:34:16;;;;;;;4.85;1.80;;;29.80;97.30;;;;;;4940182;29;20253;-73
2022/06/22 09:36:55;;;;;;;5.97;1.95;;;29.80;97.10;;;;;;4935153;28;20572;-71
2022/06/22 09:39:36;;;;;;;5.18;2.28;;;29.90;96.60;;;;;;4936428;28;20237;-70
2022/06/22 09:42:19;;;;;;;2.72;2.15;;;30.00;97.10;;;;;;4936381;28;20298;-72
2022/06/22 09:45:10;;;;;;;2.67;1.90;;;30.30;97.00;;;;;;4938147;29;20210;-71
2022/06/22 09:48:02;;;;;;;3.92;2.15;;;30.50;97.30;;;;;;4937461;29;20290;-71
2022/06/22 09:50:50;;;;;;;2.83;1.90;;;30.80;96.10;;;;;;4956117;28;20199;-73
2022/06/22 09:53:39;;;;;;;4.13;1.90;;;31.00;96.20;;;;;;4936560;28;20229;-71
2022/06/22 09:56:24;;;;;;;3.58;2.05;;;31.20;95.50;;;;;;4936385;28;20203;-72
2022/06/22 09:59:01;;;;;;;3.17;2.03;;;31.30;95.30;;;;;;4935546;28;20206;-70
2022/06/22 10:01:42;;;;;;;2.72;1.75;;;31.30;95.50;;;;;;4936388;29;20226;-71
2022/06/22 10:04:37;;;;;;;3.67;1.88;;;31.30;95.10;;;;;;4937711;28;20309;-71
2022/06/22 10:07:26;;;;;;;4.30;2.67;;;31.50;94.60;;;;;;4937957;28;20213;-71
2022/06/22 10:10:31;;;;;;;3.00;2.10;;;31.60;93.80;;;;;;4936913;29;20245;-71
2022/06/22 10:13:10;;;;;;;4.55;2.00;;;31.80;94.10;;;;;;4936562;29;20277;-72
2022/06/22 10:16:01;;;;;;;3.08;1.98;;;31.80;94.10;;;;;;4936895;29;20200;-71
2022/06/22 10:19:02;;;;;;;4.03;2.00;;;32.00;93.60;;;;;;4937116;29;20663;-71
2022/06/22 10:21:39;;;;;;;3.15;2.28;;;32.10;94.00;;;;;;4936276;29;20512;-71
2022/06/22 10:24:30;;;;;;;3.53;2.20;;;32.20;93.30;;;;;;4937201;28;20206;-72
2022/06/22 10:26:59;;;;;;;3.20;2.30;;;32.10;93.00;;;;;;4939181;29;20207;-71
2022/06/22 10:29:26;;;;;;;4.40;2.20;;;32.10;93.50;;;;;;4937992;29;20191;-73
2022/06/22 10:32:00;;;;;;;4.60;2.38;;;31.90;93.00;;;;;;4941155;28;20226;-73
2022/06/22 10:34:55;;;;;;;2.80;2.10;;;31.90;92.90;;;;;;4941586;28;20194;-72
2022/06/22 10:37:25;;;;;;;2.85;2.10;;;31.80;92.50;;;;;;4940395;28;20276;-72
2022/06/22 10:46:08;;;;;;;5.97;2.17;;;32.00;92.70;;;;;;4941528;29;20194;-73
2022/06/22 10:49:05;;;;;;;4.78;2.15;;;32.20;93.20;;;;;;4942009;28;20209;-72
2022/06/22 10:52:01;;;;;;;5.43;2.28;;;32.50;92.50;;;;;;4941515;28;20276;-72
2022/06/22 10:54:49;;;;;;;4.15;2.13;;;32.60;91.80;;;;;;4941393;29;20210;-70
2022/06/22 10:57:40;;;;;;;4.63;2.33;;;32.80;91.90;;;;;;4941417;28;20209;-73
2022/06/22 11:00:53;;;;;;;4.38;2.22;;;33.00;91.80;;;;;;4941443;28;20467;-72
2022/06/22 11:03:38;;;;;;;3.88;2.40;;;33.10;92.00;;;;;;4940693;29;20309;-72
2022/06/22 11:06:29;;;;;;;22.23;4.70;;;33.20;91.40;;;;;;4944253;28;20195;-73
2022/06/22 11:09:09;;;;;;;4.13;2.47;;;33.20;91.70;;;;;;4942447;29;20203;-73
2022/06/22 11:11:51;;;;;;;5.70;2.40;;;33.60;91.00;;;;;;4940261;28;20229;-71
2022/06/22 11:14:28;;;;;;;3.08;2.30;;;33.80;90.90;;;;;;4940341;29;20298;-73
2022/06/22 11:17:03;;;;;;;3.58;2.40;;;33.90;90.60;;;;;;4939246;28;20214;-72
2022/06/22 11:19:38;;;;;;;5.65;2.45;;;33.80;90.50;;;;;;4939575;29;20213;-74
2022/06/22 11:22:05;;;;;;;3.42;2.33;;;34.10;89.80;;;;;;4939025;28;20260;-74
2022/06/22 11:25:09;;;;;;;4.55;2.35;;;34.00;90.20;;;;;;4940137;28;20206;-74
2022/06/22 11:31:14;;;;;;;4.72;2.20;;;34.30;88.50;;;;;;4953994;28;20194;-73
2022/06/22 11:34:19;;;;;;;6.25;2.15;;;34.50;88.10;;;;;;4940619;29;20284;-72
2022/06/22 11:37:17;;;;;;;8.90;2.90;;;34.40;87.70;;;;;;4938315;29;20702;-72
2022/06/22 11:40:23;;;;;;;2.75;2.17;;;34.20;87.80;;;;;;4939711;28;20262;-72
2022/06/22 11:43:11;;;;;;;4.13;2.40;;;34.10;88.10;;;;;;4939407;28;20233;-71
2022/06/22 11:46:00;;;;;;;3.45;2.30;;;34.10;87.00;;;;;;4939170;28;20207;-72
2022/06/22 11:48:45;;;;;;;6.47;2.85;;;34.00;86.40;;;;;;4939232;29;20198;-72
2022/06/22 11:51:20;;;;;;;3.80;2.40;;;34.10;87.10;;;;;;4939727;28;20455;-73
2022/06/22 11:54:02;;;;;;;3.95;2.22;;;34.30;86.00;;;;;;4939583;29;20249;-71
2022/06/22 11:57:01;;;;;;;3.63;2.58;;;34.40;86.30;;;;;;4938627;29;20198;-73
2022/06/22 11:59:52;;;;;;;3.33;2.63;;;34.10;87.60;;;;;;4939408;28;21129;-72
2022/06/22 12:02:37;;;;;;;7.47;2.67;;;34.10;86.40;;;;;;4940804;28;20227;-71
2022/06/22 12:05:35;;;;;;;4.43;2.42;;;33.90;85.70;;;;;;4941410;29;20740;-74
2022/06/22 12:08:15;;;;;;;3.25;2.20;;;33.70;85.20;;;;;;4939362;29;20205;-72
2022/06/22 12:10:58;;;;;;;3.25;2.38;;;33.10;87.10;;;;;;4940462;29;20202;-71
2022/06/22 12:15:04;;;;;;;3.97;2.40;;;33.00;87.40;;;;;;4939626;28;20237;-71
2022/06/22 12:16:37;;;;;;;3.13;2.33;;;33.30;87.90;;;;;;4938566;29;20640;-73
2022/06/22 12:19:10;;;;;;;2.70;2.25;;;33.30;87.90;;;;;;4939738;29;20848;-72
2022/06/22 12:22:02;;;;;;;4.05;2.30;;;33.40;87.10;;;;;;4939931;29;20230;-70
2022/06/22 12:24:44;;;;;;;4.38;2.47;;;33.40;86.90;;;;;;4940906;29;20232;-73
2022/06/22 12:27:17;;;;;;;3.25;2.50;;;33.10;87.90;;;;;;4940277;29;20444;-73
2022/06/22 12:30:03;;;;;;;3.35;2.90;;;32.90;87.40;;;;;;4941077;28;20210;-73
2022/06/22 12:32:36;;;;;;;3.35;2.50;;;32.70;87.50;;;;;;4939368;28;20223;-73
2022/06/22 12:35:36;;;;;;;8.73;2.58;;;32.70;88.60;;;;;;4940659;28;20206;-71
2022/06/22 12:38:18;;;;;;;3.55;2.60;;;32.70;88.50;;;;;;4936339;28;20269;-73
2022/06/22 12:41:27;;;;;;;6.45;2.72;;;32.80;89.00;;;;;;4938677;29;20286;-72
2022/06/22 12:44:27;;;;;;;5.30;2.50;;;32.90;88.30;;;;;;4940542;29;20211;-72
2022/06/22 12:47:36;;;;;;;2.97;2.38;;;33.00;89.00;;;;;;4938590;28;20198;-73
2022/06/22 12:50:21;;;;;;;4.75;2.88;;;33.00;88.80;;;;;;4940817;28;21024;-73
2022/06/22 12:52:53;;;;;;;3.78;2.55;;;32.90;89.70;;;;;;4938746;29;20214;-74
2022/06/22 12:55:28;;;;;;;4.90;2.75;;;32.90;89.20;;;;;;4936474;29;20359;-73
2022/06/22 12:58:11;;;;;;;4.25;2.55;;;33.00;89.30;;;;;;4938280;28;20202;-73
2022/06/22 13:00:41;;;;;;;6.93;3.00;;;33.00;88.40;;;;;;4938486;29;20190;-73
2022/06/22 13:03:22;;;;;;;3.83;2.75;;;32.90;89.30;;;;;;4937697;28;20229;-73
2022/06/22 13:05:51;;;;;;;5.38;2.65;;;32.90;89.50;;;;;;4939463;28;20209;-73
2022/06/22 13:08:21;;;;;;;7.28;3.10;;;32.80;89.20;;;;;;4937230;28;20195;-74
2022/06/22 13:10:52;;;;;;;3.92;2.60;;;32.60;90.00;;;;;;4937029;28;20194;-72
2022/06/22 13:13:52;;;;;;;3.00;2.70;;;32.70;90.30;;;;;;4937156;28;20258;-74
2022/06/22 13:16:59;;;;;;;5.95;3.00;;;32.70;90.20;;;;;;5059677;28;20581;-66
2022/06/22 13:20:03;;;;;;;4.28;2.90;;;32.60;89.70;;;;;;5049448;28;20198;-64
2022/06/22 13:23:04;;;;;;;5.40;2.80;;;32.30;90.00;;;;;;5054691;28;20417;-64
2022/06/22 13:25:56;;;;;;;4.30;2.58;;;32.30;90.00;;;;;;5058088;28;20218;-64
2022/06/22 13:28:43;;;;;;;8.85;3.20;;;32.10;90.20;;;;;;5058051;28;20203;-64
2022/06/22 13:31:20;;;;;;;4.40;2.80;;;32.10;90.10;;;;;;5057585;28;20209;-64
2022/06/22 13:33:56;;;;;;;4.43;2.38;;;32.00;90.20;;;;;;5057927;28;20259;-64
2022/06/22 13:37:01;;;;;;;7.68;3.10;;;32.00;90.00;;;;;;5054741;28;20225;-64
2022/06/22 13:39:45;;;;;;;6.72;2.58;;;32.00;90.20;;;;;;5053898;28;20190;-64
2022/06/22 13:42:35;;;;;;;6.95;2.92;;;32.30;90.20;;;;;;5058529;28;20190;-64
2022/06/22 13:45:34;;;;;;;3.67;3.20;;;32.60;90.20;;;;;;5054612;28;20688;-64
2022/06/22 13:48:36;;;;;;;4.93;2.60;;;32.90;89.20;;;;;;5047739;28;20202;-64
2022/06/22 13:51:29;;;;;;;5.90;2.92;;;33.00;89.50;;;;;;5056270;28;20206;-64
2022/06/22 13:54:15;;;;;;;5.70;2.70;;;33.10;88.90;;;;;;5056196;28;20206;-65
2022/06/22 13:57:15;;;;;;;4.40;2.78;;;33.30;88.90;;;;;;5055438;28;20294;-65
2022/06/22 14:00:00;;;;;;;3.00;2.70;;;33.40;87.80;;;;;;5057666;28;20226;-65
2022/06/22 14:02:45;;;;;;;3.80;2.45;;;33.20;88.60;;;;;;5063314;28;20656;-65
2022/06/22 14:05:30;;;;;;;4.72;2.63;;;33.20;88.40;;;;;;5063153;28;20229;-67
2022/06/22 14:08:09;;;;;;;3.22;2.65;;;33.00;88.90;;;;;;5054342;28;20672;-69
2022/06/22 14:10:46;;;;;;;9.07;2.67;;;33.10;90.00;;;;;;5056445;28;20202;-68
2022/06/22 14:13:36;;;;;;;5.75;2.90;;;33.20;90.10;;;;;;5056001;28;20201;-68
2022/06/22 14:16:09;;;;;;;4.07;2.70;;;33.30;88.40;;;;;;5055787;28;20222;-68
2022/06/22 14:18:47;;;;;;;3.20;2.85;;;33.50;88.70;;;;;;5057797;28;20668;-70